Terminal Aerodrome Forecast
Issued by NWS Tampa Bay Area, FL

Home | Current Version | Previous Version | Text Only | Print | Product List | Glossary On
Versions: 1 2 3 4 5 6 7 8 9 10 11 12 13 14 15 16 17 18
000
FTUS42 KTBW 241120
TAFSRQ
TAF
KSRQ 241120Z 2412/2512 34006KT P6SM OVC010
      TEMPO 2412/2414 3SM -RA BR BKN005
     FM241700 35008KT P6SM BKN015
     FM241900 35008KT P6SM SCT020
     FM242300 VRB03KT P6SM SCT035
     FM251000 VRB03KT 6SM BR SCT005=

USA.gov is the U.S. government's official web portal to all federal, state and local government web resources and services.